sensor_id;sensor_type;location;lat;lon;timestamp;P1;durP1;ratioP1;P2;durP2;ratioP2
11931;SDS011;6025;51.368;6.788;2022-10-28T00:02:29;11.85;;;3.83;;
11931;SDS011;6025;51.368;6.788;2022-10-28T00:07:20;12.65;;;4.05;;
11931;SDS011;6025;51.368;6.788;2022-10-28T00:12:12;8.57;;;3.53;;
11931;SDS011;6025;51.368;6.788;2022-10-28T00:17:03;10.60;;;3.40;;
11931;SDS011;6025;51.368;6.788;2022-10-28T00:21:56;8.35;;;3.55;;
11931;SDS011;6025;51.368;6.788;2022-10-28T00:26:48;9.98;;;3.47;;
11931;SDS011;6025;51.368;6.788;2022-10-28T00:31:39;11.50;;;3.63;;
11931;SDS011;6025;51.368;6.788;2022-10-28T00:36:32;10.13;;;3.20;;
11931;SDS011;6025;51.368;6.788;2022-10-28T00:41:27;8.15;;;3.42;;
11931;SDS011;6025;51.368;6.788;2022-10-28T00:46:23;9.63;;;3.53;;
11931;SDS011;6025;51.368;6.788;2022-10-28T00:51:17;6.65;;;3.25;;
11931;SDS011;6025;51.368;6.788;2022-10-28T00:56:11;7.60;;;3.50;;
11931;SDS011;6025;51.368;6.788;2022-10-28T01:01:04;9.50;;;2.90;;
11931;SDS011;6025;51.368;6.788;2022-10-28T01:05:56;10.73;;;3.80;;
11931;SDS011;6025;51.368;6.788;2022-10-28T01:11:02;13.00;;;3.72;;
11931;SDS011;6025;51.368;6.788;2022-10-28T01:16:01;11.85;;;3.58;;
11931;SDS011;6025;51.368;6.788;2022-10-28T01:26:37;13.52;;;3.60;;
11931;SDS011;6025;51.368;6.788;2022-10-28T01:31:39;10.43;;;3.90;;
11931;SDS011;6025;51.368;6.788;2022-10-28T01:36:35;8.55;;;3.28;;
11931;SDS011;6025;51.368;6.788;2022-10-28T01:41:29;12.85;;;3.33;;
11931;SDS011;6025;51.368;6.788;2022-10-28T01:46:24;11.60;;;3.10;;
11931;SDS011;6025;51.368;6.788;2022-10-28T01:51:20;6.88;;;2.92;;
11931;SDS011;6025;51.368;6.788;2022-10-28T01:56:15;9.32;;;3.45;;
11931;SDS011;6025;51.368;6.788;2022-10-28T02:01:08;12.05;;;4.20;;
11931;SDS011;6025;51.368;6.788;2022-10-28T02:06:00;11.50;;;3.65;;
11931;SDS011;6025;51.368;6.788;2022-10-28T02:10:59;10.98;;;3.25;;
11931;SDS011;6025;51.368;6.788;2022-10-28T02:15:57;15.60;;;3.95;;
11931;SDS011;6025;51.368;6.788;2022-10-28T02:20:54;9.02;;;3.70;;
11931;SDS011;6025;51.368;6.788;2022-10-28T02:25:51;7.97;;;3.42;;
11931;SDS011;6025;51.368;6.788;2022-10-28T02:30:49;11.68;;;4.00;;
11931;SDS011;6025;51.368;6.788;2022-10-28T02:35:47;9.75;;;3.40;;
11931;SDS011;6025;51.368;6.788;2022-10-28T02:40:41;11.63;;;4.20;;
11931;SDS011;6025;51.368;6.788;2022-10-28T02:45:36;9.68;;;3.97;;
11931;SDS011;6025;51.368;6.788;2022-10-28T02:50:31;11.85;;;3.88;;
11931;SDS011;6025;51.368;6.788;2022-10-28T02:55:23;7.53;;;3.33;;
11931;SDS011;6025;51.368;6.788;2022-10-28T03:00:20;12.50;;;3.70;;
11931;SDS011;6025;51.368;6.788;2022-10-28T03:05:13;11.07;;;3.72;;
11931;SDS011;6025;51.368;6.788;2022-10-28T03:10:07;12.30;;;3.67;;
11931;SDS011;6025;51.368;6.788;2022-10-28T03:14:59;8.30;;;3.60;;
11931;SDS011;6025;51.368;6.788;2022-10-28T03:19:50;10.27;;;3.63;;
11931;SDS011;6025;51.368;6.788;2022-10-28T03:24:42;9.00;;;3.88;;
11931;SDS011;6025;51.368;6.788;2022-10-28T03:29:35;10.25;;;4.20;;
11931;SDS011;6025;51.368;6.788;2022-10-28T03:34:26;7.70;;;3.45;;
11931;SDS011;6025;51.368;6.788;2022-10-28T03:39:18;10.50;;;3.83;;
11931;SDS011;6025;51.368;6.788;2022-10-28T03:44:09;7.78;;;3.35;;
11931;SDS011;6025;51.368;6.788;2022-10-28T03:49:02;10.52;;;3.80;;
11931;SDS011;6025;51.368;6.788;2022-10-28T03:53:54;10.50;;;4.50;;
11931;SDS011;6025;51.368;6.788;2022-10-28T03:58:46;12.45;;;3.63;;
11931;SDS011;6025;51.368;6.788;2022-10-28T04:03:37;9.77;;;3.88;;
11931;SDS011;6025;51.368;6.788;2022-10-28T04:08:30;10.13;;;3.92;;
11931;SDS011;6025;51.368;6.788;2022-10-28T04:13:22;14.00;;;4.28;;
11931;SDS011;6025;51.368;6.788;2022-10-28T04:18:14;15.10;;;3.85;;
11931;SDS011;6025;51.368;6.788;2022-10-28T04:23:05;7.38;;;3.42;;
11931;SDS011;6025;51.368;6.788;2022-10-28T04:27:58;9.32;;;3.38;;
11931;SDS011;6025;51.368;6.788;2022-10-28T04:32:50;14.00;;;4.22;;
11931;SDS011;6025;51.368;6.788;2022-10-28T04:37:41;9.05;;;3.63;;
11931;SDS011;6025;51.368;6.788;2022-10-28T04:42:33;9.63;;;3.60;;
11931;SDS011;6025;51.368;6.788;2022-10-28T04:47:26;17.13;;;4.20;;
11931;SDS011;6025;51.368;6.788;2022-10-28T04:52:17;17.75;;;4.07;;
11931;SDS011;6025;51.368;6.788;2022-10-28T04:57:09;7.95;;;3.25;;
11931;SDS011;6025;51.368;6.788;2022-10-28T05:02:00;8.57;;;3.78;;
11931;SDS011;6025;51.368;6.788;2022-10-28T05:06:53;10.80;;;4.10;;
11931;SDS011;6025;51.368;6.788;2022-10-28T05:11:45;10.43;;;3.42;;
11931;SDS011;6025;51.368;6.788;2022-10-28T05:16:36;9.23;;;3.65;;
11931;SDS011;6025;51.368;6.788;2022-10-28T05:21:28;10.13;;;3.72;;
11931;SDS011;6025;51.368;6.788;2022-10-28T05:26:21;9.02;;;4.10;;
11931;SDS011;6025;51.368;6.788;2022-10-28T05:31:12;8.38;;;3.40;;
11931;SDS011;6025;51.368;6.788;2022-10-28T05:36:04;12.10;;;3.78;;
11931;SDS011;6025;51.368;6.788;2022-10-28T05:40:56;8.63;;;3.67;;
11931;SDS011;6025;51.368;6.788;2022-10-28T05:45:52;12.40;;;3.80;;
11931;SDS011;6025;51.368;6.788;2022-10-28T05:50:43;9.35;;;4.10;;
11931;SDS011;6025;51.368;6.788;2022-10-28T05:55:35;12.80;;;4.07;;
11931;SDS011;6025;51.368;6.788;2022-10-28T06:00:26;11.60;;;3.92;;
11931;SDS011;6025;51.368;6.788;2022-10-28T06:05:19;8.40;;;3.63;;
11931;SDS011;6025;51.368;6.788;2022-10-28T06:10:11;13.60;;;4.55;;
11931;SDS011;6025;51.368;6.788;2022-10-28T06:15:03;10.45;;;3.72;;
11931;SDS011;6025;51.368;6.788;2022-10-28T06:19:55;12.50;;;3.80;;
11931;SDS011;6025;51.368;6.788;2022-10-28T06:24:48;11.60;;;3.45;;
11931;SDS011;6025;51.368;6.788;2022-10-28T06:29:39;10.85;;;3.53;;
11931;SDS011;6025;51.368;6.788;2022-10-28T06:34:31;9.30;;;4.05;;
11931;SDS011;6025;51.368;6.788;2022-10-28T06:39:22;9.32;;;4.07;;
11931;SDS011;6025;51.368;6.788;2022-10-28T06:44:15;8.43;;;3.88;;
11931;SDS011;6025;51.368;6.788;2022-10-28T06:49:07;12.15;;;4.03;;
11931;SDS011;6025;51.368;6.788;2022-10-28T06:53:58;12.63;;;3.80;;
11931;SDS011;6025;51.368;6.788;2022-10-28T06:58:50;11.23;;;4.10;;
11931;SDS011;6025;51.368;6.788;2022-10-28T07:03:44;16.08;;;4.00;;
11931;SDS011;6025;51.368;6.788;2022-10-28T07:08:35;8.15;;;3.40;;
11931;SDS011;6025;51.368;6.788;2022-10-28T07:13:27;11.63;;;3.70;;
11931;SDS011;6025;51.368;6.788;2022-10-28T07:18:19;12.65;;;3.80;;
11931;SDS011;6025;51.368;6.788;2022-10-28T07:23:12;14.35;;;3.80;;
11931;SDS011;6025;51.368;6.788;2022-10-28T07:28:03;10.30;;;3.80;;
11931;SDS011;6025;51.368;6.788;2022-10-28T07:32:55;11.05;;;3.88;;
11931;SDS011;6025;51.368;6.788;2022-10-28T07:37:49;11.82;;;3.80;;
11931;SDS011;6025;51.368;6.788;2022-10-28T07:42:42;10.65;;;3.50;;
11931;SDS011;6025;51.368;6.788;2022-10-28T07:47:34;11.52;;;3.83;;
11931;SDS011;6025;51.368;6.788;2022-10-28T07:52:25;9.70;;;3.70;;
11931;SDS011;6025;51.368;6.788;2022-10-28T07:57:17;15.65;;;3.80;;
11931;SDS011;6025;51.368;6.788;2022-10-28T08:02:10;16.77;;;3.50;;
11931;SDS011;6025;51.368;6.788;2022-10-28T08:07:05;12.55;;;3.72;;
11931;SDS011;6025;51.368;6.788;2022-10-28T08:11:57;8.85;;;3.35;;
11931;SDS011;6025;51.368;6.788;2022-10-28T08:16:48;10.43;;;3.55;;
11931;SDS011;6025;51.368;6.788;2022-10-28T08:21:41;12.32;;;3.78;;
11931;SDS011;6025;51.368;6.788;2022-10-28T08:26:33;15.75;;;3.63;;
11931;SDS011;6025;51.368;6.788;2022-10-28T08:31:24;13.65;;;4.07;;
11931;SDS011;6025;51.368;6.788;2022-10-28T08:36:16;13.25;;;4.00;;
11931;SDS011;6025;51.368;6.788;2022-10-28T08:41:11;17.98;;;4.00;;
11931;SDS011;6025;51.368;6.788;2022-10-28T08:46:10;12.73;;;3.78;;
11931;SDS011;6025;51.368;6.788;2022-10-28T08:51:05;11.55;;;3.33;;
11931;SDS011;6025;51.368;6.788;2022-10-28T08:56:05;8.90;;;3.45;;
11931;SDS011;6025;51.368;6.788;2022-10-28T09:01:04;15.38;;;4.00;;
11931;SDS011;6025;51.368;6.788;2022-10-28T09:06:05;16.80;;;4.15;;
11931;SDS011;6025;51.368;6.788;2022-10-28T09:11:02;13.07;;;3.38;;
11931;SDS011;6025;51.368;6.788;2022-10-28T09:15:59;14.68;;;4.13;;
11931;SDS011;6025;51.368;6.788;2022-10-28T09:20:58;9.82;;;3.78;;
11931;SDS011;6025;51.368;6.788;2022-10-28T09:25:57;14.23;;;4.18;;
11931;SDS011;6025;51.368;6.788;2022-10-28T09:30:59;8.80;;;3.47;;
11931;SDS011;6025;51.368;6.788;2022-10-28T09:35:57;15.00;;;4.15;;
11931;SDS011;6025;51.368;6.788;2022-10-28T09:40:51;16.02;;;3.65;;
11931;SDS011;6025;51.368;6.788;2022-10-28T09:45:46;12.68;;;4.03;;
11931;SDS011;6025;51.368;6.788;2022-10-28T09:50:39;13.18;;;4.20;;
11931;SDS011;6025;51.368;6.788;2022-10-28T09:55:32;12.95;;;3.55;;
11931;SDS011;6025;51.368;6.788;2022-10-28T10:00:24;14.20;;;3.45;;
11931;SDS011;6025;51.368;6.788;2022-10-28T10:05:16;14.65;;;3.70;;
11931;SDS011;6025;51.368;6.788;2022-10-28T10:10:10;15.65;;;3.80;;
11931;SDS011;6025;51.368;6.788;2022-10-28T10:15:07;10.70;;;3.42;;
11931;SDS011;6025;51.368;6.788;2022-10-28T10:20:05;11.77;;;3.63;;
11931;SDS011;6025;51.368;6.788;2022-10-28T10:24:58;10.27;;;3.78;;
11931;SDS011;6025;51.368;6.788;2022-10-28T10:29:51;10.13;;;3.58;;
11931;SDS011;6025;51.368;6.788;2022-10-28T10:34:45;13.82;;;3.47;;
11931;SDS011;6025;51.368;6.788;2022-10-28T10:39:42;12.63;;;4.65;;
11931;SDS011;6025;51.368;6.788;2022-10-28T10:44:35;12.27;;;3.55;;
11931;SDS011;6025;51.368;6.788;2022-10-28T10:49:27;10.00;;;3.90;;
11931;SDS011;6025;51.368;6.788;2022-10-28T10:54:20;11.77;;;3.85;;
11931;SDS011;6025;51.368;6.788;2022-10-28T10:59:15;11.35;;;3.70;;
11931;SDS011;6025;51.368;6.788;2022-10-28T11:04:14;13.43;;;3.88;;
11931;SDS011;6025;51.368;6.788;2022-10-28T11:09:16;13.45;;;4.38;;
11931;SDS011;6025;51.368;6.788;2022-10-28T11:14:18;12.77;;;3.75;;
11931;SDS011;6025;51.368;6.788;2022-10-28T11:19:14;10.30;;;3.55;;
11931;SDS011;6025;51.368;6.788;2022-10-28T11:24:17;17.30;;;4.05;;
11931;SDS011;6025;51.368;6.788;2022-10-28T11:29:20;13.05;;;3.90;;
11931;SDS011;6025;51.368;6.788;2022-10-28T11:34:15;11.85;;;4.10;;
11931;SDS011;6025;51.368;6.788;2022-10-28T11:39:17;12.05;;;3.70;;
11931;SDS011;6025;51.368;6.788;2022-10-28T11:44:14;13.07;;;4.30;;
11931;SDS011;6025;51.368;6.788;2022-10-28T11:54:30;16.85;;;4.13;;
11931;SDS011;6025;51.368;6.788;2022-10-28T11:59:36;13.85;;;4.05;;
11931;SDS011;6025;51.368;6.788;2022-10-28T12:04:41;11.65;;;3.97;;
11931;SDS011;6025;51.368;6.788;2022-10-28T12:09:41;14.13;;;4.13;;
11931;SDS011;6025;51.368;6.788;2022-10-28T12:14:42;15.20;;;4.10;;
11931;SDS011;6025;51.368;6.788;2022-10-28T12:19:41;11.70;;;3.78;;
11931;SDS011;6025;51.368;6.788;2022-10-28T12:24:35;17.58;;;4.53;;
11931;SDS011;6025;51.368;6.788;2022-10-28T12:29:29;12.55;;;3.97;;
11931;SDS011;6025;51.368;6.788;2022-10-28T12:34:23;13.98;;;4.35;;
11931;SDS011;6025;51.368;6.788;2022-10-28T12:39:21;14.63;;;4.55;;
11931;SDS011;6025;51.368;6.788;2022-10-28T12:44:15;17.88;;;4.00;;
11931;SDS011;6025;51.368;6.788;2022-10-28T12:49:11;12.57;;;3.92;;
11931;SDS011;6025;51.368;6.788;2022-10-28T12:54:08;10.27;;;4.00;;
11931;SDS011;6025;51.368;6.788;2022-10-28T12:59:10;15.18;;;4.05;;
11931;SDS011;6025;51.368;6.788;2022-10-28T13:04:03;14.50;;;3.75;;
11931;SDS011;6025;51.368;6.788;2022-10-28T13:09:03;14.75;;;4.20;;
11931;SDS011;6025;51.368;6.788;2022-10-28T13:14:17;15.90;;;4.00;;
11931;SDS011;6025;51.368;6.788;2022-10-28T13:24:28;20.23;;;4.75;;
11931;SDS011;6025;51.368;6.788;2022-10-28T13:29:27;14.75;;;4.10;;
11931;SDS011;6025;51.368;6.788;2022-10-28T13:34:25;12.88;;;4.15;;
11931;SDS011;6025;51.368;6.788;2022-10-28T13:39:21;13.88;;;4.53;;
11931;SDS011;6025;51.368;6.788;2022-10-28T13:44:25;13.02;;;4.10;;
11931;SDS011;6025;51.368;6.788;2022-10-28T13:49:22;14.27;;;3.78;;
11931;SDS011;6025;51.368;6.788;2022-10-28T13:54:24;21.33;;;4.10;;
11931;SDS011;6025;51.368;6.788;2022-10-28T13:59:29;15.50;;;4.53;;
11931;SDS011;6025;51.368;6.788;2022-10-28T14:04:23;14.00;;;3.53;;
11931;SDS011;6025;51.368;6.788;2022-10-28T14:09:18;17.02;;;4.43;;
11931;SDS011;6025;51.368;6.788;2022-10-28T14:14:11;14.45;;;4.35;;
11931;SDS011;6025;51.368;6.788;2022-10-28T14:19:13;12.98;;;4.00;;
11931;SDS011;6025;51.368;6.788;2022-10-28T14:24:11;17.63;;;3.88;;
11931;SDS011;6025;51.368;6.788;2022-10-28T14:39:35;13.32;;;3.53;;
11931;SDS011;6025;51.368;6.788;2022-10-28T14:49:56;13.98;;;3.70;;
11931;SDS011;6025;51.368;6.788;2022-10-28T14:54:50;20.42;;;4.57;;
11931;SDS011;6025;51.368;6.788;2022-10-28T14:59:44;13.82;;;3.70;;
11931;SDS011;6025;51.368;6.788;2022-10-28T15:04:37;14.00;;;4.00;;
11931;SDS011;6025;51.368;6.788;2022-10-28T15:09:31;12.48;;;3.63;;
11931;SDS011;6025;51.368;6.788;2022-10-28T15:14:25;14.52;;;3.88;;
11931;SDS011;6025;51.368;6.788;2022-10-28T15:19:19;10.73;;;3.67;;
11931;SDS011;6025;51.368;6.788;2022-10-28T15:24:12;12.88;;;3.88;;
11931;SDS011;6025;51.368;6.788;2022-10-28T15:29:05;16.80;;;3.92;;
11931;SDS011;6025;51.368;6.788;2022-10-28T15:33:57;18.75;;;4.30;;
11931;SDS011;6025;51.368;6.788;2022-10-28T15:38:48;13.20;;;3.90;;
11931;SDS011;6025;51.368;6.788;2022-10-28T15:43:41;13.93;;;4.18;;
11931;SDS011;6025;51.368;6.788;2022-10-28T15:48:45;12.75;;;4.20;;
11931;SDS011;6025;51.368;6.788;2022-10-28T15:53:41;14.13;;;3.95;;
11931;SDS011;6025;51.368;6.788;2022-10-28T15:58:34;16.63;;;3.78;;
11931;SDS011;6025;51.368;6.788;2022-10-28T16:03:27;15.38;;;4.00;;
11931;SDS011;6025;51.368;6.788;2022-10-28T16:08:21;15.73;;;4.00;;
11931;SDS011;6025;51.368;6.788;2022-10-28T16:13:18;12.50;;;3.95;;
11931;SDS011;6025;51.368;6.788;2022-10-28T16:18:12;16.10;;;3.83;;
11931;SDS011;6025;51.368;6.788;2022-10-28T16:23:04;12.77;;;4.18;;
11931;SDS011;6025;51.368;6.788;2022-10-28T16:27:57;12.52;;;4.25;;
11931;SDS011;6025;51.368;6.788;2022-10-28T16:32:48;12.93;;;3.58;;
11931;SDS011;6025;51.368;6.788;2022-10-28T16:37:41;12.98;;;3.95;;
11931;SDS011;6025;51.368;6.788;2022-10-28T16:42:33;11.68;;;4.05;;
11931;SDS011;6025;51.368;6.788;2022-10-28T16:47:27;17.98;;;3.97;;
11931;SDS011;6025;51.368;6.788;2022-10-28T16:52:19;17.90;;;4.65;;
11931;SDS011;6025;51.368;6.788;2022-10-28T16:57:12;11.27;;;4.43;;
11931;SDS011;6025;51.368;6.788;2022-10-28T17:02:05;10.75;;;4.32;;
11931;SDS011;6025;51.368;6.788;2022-10-28T17:07:03;10.70;;;4.00;;
11931;SDS011;6025;51.368;6.788;2022-10-28T17:11:55;15.27;;;4.10;;
11931;SDS011;6025;51.368;6.788;2022-10-28T17:16:46;16.80;;;4.45;;
11931;SDS011;6025;51.368;6.788;2022-10-28T17:21:40;17.00;;;4.82;;
11931;SDS011;6025;51.368;6.788;2022-10-28T17:26:33;12.45;;;4.80;;
11931;SDS011;6025;51.368;6.788;2022-10-28T17:31:24;19.33;;;4.90;;
11931;SDS011;6025;51.368;6.788;2022-10-28T17:36:16;18.85;;;4.75;;
11931;SDS011;6025;51.368;6.788;2022-10-28T17:41:08;16.95;;;5.25;;
11931;SDS011;6025;51.368;6.788;2022-10-28T17:46:04;18.67;;;4.57;;
11931;SDS011;6025;51.368;6.788;2022-10-28T17:50:56;15.57;;;4.57;;
11931;SDS011;6025;51.368;6.788;2022-10-28T17:55:53;17.48;;;4.70;;
11931;SDS011;6025;51.368;6.788;2022-10-28T18:00:45;12.50;;;4.65;;
11931;SDS011;6025;51.368;6.788;2022-10-28T18:05:38;17.30;;;4.50;;
11931;SDS011;6025;51.368;6.788;2022-10-28T18:10:30;17.88;;;4.70;;
11931;SDS011;6025;51.368;6.788;2022-10-28T18:15:21;11.77;;;5.07;;
11931;SDS011;6025;51.368;6.788;2022-10-28T18:20:13;17.50;;;4.93;;
11931;SDS011;6025;51.368;6.788;2022-10-28T18:25:06;13.82;;;5.05;;
11931;SDS011;6025;51.368;6.788;2022-10-28T18:29:58;15.63;;;5.15;;
11931;SDS011;6025;51.368;6.788;2022-10-28T18:34:50;19.17;;;5.25;;
11931;SDS011;6025;51.368;6.788;2022-10-28T18:39:41;15.60;;;5.07;;
11931;SDS011;6025;51.368;6.788;2022-10-28T18:44:34;13.02;;;5.00;;
11931;SDS011;6025;51.368;6.788;2022-10-28T18:49:26;15.93;;;5.18;;
11931;SDS011;6025;51.368;6.788;2022-10-28T18:54:18;14.45;;;5.28;;
11931;SDS011;6025;51.368;6.788;2022-10-28T18:59:09;13.50;;;5.22;;
11931;SDS011;6025;51.368;6.788;2022-10-28T19:04:02;13.63;;;5.03;;
11931;SDS011;6025;51.368;6.788;2022-10-28T19:08:55;18.30;;;5.35;;
11931;SDS011;6025;51.368;6.788;2022-10-28T19:13:47;12.48;;;5.50;;
11931;SDS011;6025;51.368;6.788;2022-10-28T19:18:39;14.02;;;4.30;;
11931;SDS011;6025;51.368;6.788;2022-10-28T19:23:32;14.75;;;4.90;;
11931;SDS011;6025;51.368;6.788;2022-10-28T19:28:24;13.35;;;5.10;;
11931;SDS011;6025;51.368;6.788;2022-10-28T19:33:15;18.10;;;5.00;;
11931;SDS011;6025;51.368;6.788;2022-10-28T19:38:07;12.85;;;4.68;;
11931;SDS011;6025;51.368;6.788;2022-10-28T19:43:00;12.25;;;4.95;;
11931;SDS011;6025;51.368;6.788;2022-10-28T19:47:51;14.23;;;4.22;;
11931;SDS011;6025;51.368;6.788;2022-10-28T19:52:43;11.75;;;4.88;;
11931;SDS011;6025;51.368;6.788;2022-10-28T19:57:34;13.20;;;4.93;;
11931;SDS011;6025;51.368;6.788;2022-10-28T20:02:27;15.02;;;5.35;;
11931;SDS011;6025;51.368;6.788;2022-10-28T20:07:19;13.50;;;4.90;;
11931;SDS011;6025;51.368;6.788;2022-10-28T20:12:12;16.80;;;5.35;;
11931;SDS011;6025;51.368;6.788;2022-10-28T20:17:03;13.32;;;4.93;;
11931;SDS011;6025;51.368;6.788;2022-10-28T20:21:57;24.80;;;5.68;;
11931;SDS011;6025;51.368;6.788;2022-10-28T20:26:49;12.40;;;5.10;;
11931;SDS011;6025;51.368;6.788;2022-10-28T20:31:40;17.27;;;5.05;;
11931;SDS011;6025;51.368;6.788;2022-10-28T20:36:32;14.90;;;4.70;;
11931;SDS011;6025;51.368;6.788;2022-10-28T20:41:27;13.10;;;5.20;;
11931;SDS011;6025;51.368;6.788;2022-10-28T20:46:19;24.10;;;4.90;;
11931;SDS011;6025;51.368;6.788;2022-10-28T20:51:11;17.67;;;5.80;;
11931;SDS011;6025;51.368;6.788;2022-10-28T20:56:03;16.60;;;4.97;;
11931;SDS011;6025;51.368;6.788;2022-10-28T21:01:01;14.05;;;4.68;;
11931;SDS011;6025;51.368;6.788;2022-10-28T21:05:53;16.92;;;5.13;;
11931;SDS011;6025;51.368;6.788;2022-10-28T21:10:45;14.63;;;4.88;;
11931;SDS011;6025;51.368;6.788;2022-10-28T21:15:37;16.92;;;5.32;;
11931;SDS011;6025;51.368;6.788;2022-10-28T21:20:32;15.82;;;4.88;;
11931;SDS011;6025;51.368;6.788;2022-10-28T21:25:25;19.33;;;5.22;;
11931;SDS011;6025;51.368;6.788;2022-10-28T21:30:16;17.02;;;5.15;;
11931;SDS011;6025;51.368;6.788;2022-10-28T21:35:08;20.13;;;5.68;;
11931;SDS011;6025;51.368;6.788;2022-10-28T21:40:01;13.23;;;5.05;;
11931;SDS011;6025;51.368;6.788;2022-10-28T21:44:53;11.70;;;5.05;;
11931;SDS011;6025;51.368;6.788;2022-10-28T21:49:45;17.90;;;5.20;;
11931;SDS011;6025;51.368;6.788;2022-10-28T21:54:37;17.95;;;5.15;;
11931;SDS011;6025;51.368;6.788;2022-10-28T21:59:30;19.42;;;4.78;;
11931;SDS011;6025;51.368;6.788;2022-10-28T22:04:21;17.52;;;5.15;;
11931;SDS011;6025;51.368;6.788;2022-10-28T22:09:13;17.65;;;5.28;;
11931;SDS011;6025;51.368;6.788;2022-10-28T22:14:04;15.25;;;5.68;;
11931;SDS011;6025;51.368;6.788;2022-10-28T22:18:57;15.38;;;4.50;;
11931;SDS011;6025;51.368;6.788;2022-10-28T22:23:50;14.90;;;5.30;;
11931;SDS011;6025;51.368;6.788;2022-10-28T22:28:42;13.23;;;4.85;;
11931;SDS011;6025;51.368;6.788;2022-10-28T22:33:33;17.15;;;5.35;;
11931;SDS011;6025;51.368;6.788;2022-10-28T22:38:26;19.52;;;5.28;;
11931;SDS011;6025;51.368;6.788;2022-10-28T22:43:18;14.77;;;5.55;;
11931;SDS011;6025;51.368;6.788;2022-10-28T22:48:10;18.73;;;5.80;;
11931;SDS011;6025;51.368;6.788;2022-10-28T22:53:01;14.48;;;5.30;;
11931;SDS011;6025;51.368;6.788;2022-10-28T22:57:55;13.77;;;5.45;;
11931;SDS011;6025;51.368;6.788;2022-10-28T23:02:46;12.35;;;4.80;;
11931;SDS011;6025;51.368;6.788;2022-10-28T23:07:38;17.33;;;5.35;;
11931;SDS011;6025;51.368;6.788;2022-10-28T23:12:29;15.70;;;5.53;;
11931;SDS011;6025;51.368;6.788;2022-10-28T23:17:22;13.10;;;4.97;;
11931;SDS011;6025;51.368;6.788;2022-10-28T23:22:13;19.17;;;5.25;;
11931;SDS011;6025;51.368;6.788;2022-10-28T23:27:05;16.17;;;5.90;;
11931;SDS011;6025;51.368;6.788;2022-10-28T23:31:57;10.80;;;5.10;;
11931;SDS011;6025;51.368;6.788;2022-10-28T23:36:49;14.05;;;5.53;;
11931;SDS011;6025;51.368;6.788;2022-10-28T23:41:43;16.92;;;5.55;;
11931;SDS011;6025;51.368;6.788;2022-10-28T23:46:34;14.50;;;5.40;;
11931;SDS011;6025;51.368;6.788;2022-10-28T23:51:26;15.23;;;5.60;;
11931;SDS011;6025;51.368;6.788;2022-10-28T23:56:19;14.20;;;5.28;;
